Alexandria, IN

9:00 PM EST on December 24, 2014 (GMT -0500)
Linwood, IN | Change Station
CLOSE
Current Station
Personal Weather Station
Location: Anderson, IN
Elevation: 895 ft
Nearby Weather Stations

Elev 895 ft 40.19 °N, 85.69 °W | Updated 2 seconds ago

Overcast
Overcast
37.3 °F
Feels Like 27 °F
N
21.0
Wind Variable Wind from WSW
Gusts 22.0 mph

Today
High -- | Low -- °F
--% Chance of Precip.
Yesterday
High -- | Low -- °F
Precip. -- in
8:03 AM 5:21 PM
Waxing Crescent, 12% visible
Pressure 29.62 in
Visibility 10.0 miles
Clouds Overcast 1100 ft
Windchill 27 °F
Dew Point 34 °F
Humidity 88%
Rainfall 0.46 in
Snow Depth Not available.
UV 0.0 out of 12
Pollen .10 out of 12
Air Quality Not available.
Flu Activity Not available.
METAR KMIE 250153Z 25013G20KT 10SM OVC011 03/01 A2961 RMK AO2 RAB0059E30 SLP029 P0000 T00280011

More Conditions Fewer Conditions

Pressure 29.62 in
Visibility 10.0 miles
Clouds Overcast 1100 ft
Windchill 27 °F
Dew Point 34 °F
Humidity 88%
Rainfall 0.46 in
Snow Depth Not available.
UV 0.0 out of 12
Pollen .10 out of 12
Air Quality Not available.
Flu Activity Not available.
METAR KMIE 250153Z 25013G20KT 10SM OVC011 03/01 A2961 RMK AO2 RAB0059E30 SLP029 P0000 T00280011

More Conditions Fewer Conditions

10-Day Weather Forecast

Almanac

Astronomy

Dec. 24, 2014 Rise Set
Actual Time
Civil Twilight
Nautical Twilight
Astronomical Twilight
Moon
Length of Visible Light
Length of Day
Tomorrow will be .
, % of the Moon is Illuminated

Today's Extremes

State Highs State Lows

Community

WunderPhotos

Upload Photos

1,780,208 photos uploaded!

WunderBlogs® & News

Nearby

Air Quality

  Air Quality AQ Index Pollutant
Not available.

Snow Depth

Station Depth Elevation

Earthquake Activity

City Distance Mag. Time & Date
Minimum magnitude displayed is 2.5.

Coastal Water Temperatures

Place Temperature

Nearby Weather Stations